createdAt,value
2019-03-09T00:02:10.781Z,66.78
2019-03-09T00:04:40.161Z,67.43
2019-03-09T00:07:09.589Z,67.87
2019-03-09T00:09:39.028Z,68.42
2019-03-09T00:12:08.415Z,67.57
2019-03-09T00:14:37.846Z,67.39
2019-03-09T00:17:07.265Z,67.31
2019-03-09T00:19:36.686Z,67.52
2019-03-09T00:22:06.114Z,68.24
2019-03-09T00:24:37.126Z,68.28
2019-03-09T00:27:08.138Z,67.97
2019-03-09T00:29:39.125Z,67.49
2019-03-09T00:32:10.119Z,67.33
2019-03-09T00:34:39.830Z,66.70
2019-03-09T00:37:09.189Z,66.44
2019-03-09T00:39:38.626Z,67.12
2019-03-09T00:42:07.989Z,67.47
2019-03-09T00:44:37.346Z,67.47
2019-03-09T00:47:06.855Z,66.85
2019-03-09T00:49:36.288Z,66.92
2019-03-09T00:52:05.735Z,67.16
2019-03-09T00:54:35.161Z,66.67
2019-03-09T00:57:04.593Z,66.86
2019-03-09T00:59:34.012Z,67.20
2019-03-09T01:02:03.445Z,66.72
2019-03-09T01:04:32.860Z,66.21
2019-03-09T01:07:02.289Z,65.76
2019-03-09T01:09:31.706Z,65.80
2019-03-09T01:12:01.064Z,65.90
2019-03-09T01:14:30.409Z,66.49
2019-03-09T01:16:59.890Z,66.99
2019-03-09T01:19:29.259Z,66.67
2019-03-09T01:21:58.690Z,66.96
2019-03-09T01:24:28.122Z,66.70
2019-03-09T01:26:57.562Z,66.65
2019-03-09T01:29:26.987Z,66.69
2019-03-09T01:31:56.463Z,65.93
2019-03-09T01:34:30.003Z,65.56
2019-03-09T01:36:59.443Z,65.58
2019-03-09T01:39:28.814Z,66.13
2019-03-09T01:41:58.185Z,66.41
2019-03-09T01:44:27.614Z,66.46
2019-03-09T01:46:57.060Z,66.14
2019-03-09T01:49:26.421Z,66.72
2019-03-09T01:51:55.956Z,67.06
2019-03-09T01:54:25.399Z,67.06
2019-03-09T01:56:54.836Z,67.19
2019-03-09T01:59:24.264Z,67.21
2019-03-09T02:01:53.662Z,67.14
2019-03-09T02:04:23.087Z,68.05
2019-03-09T02:06:52.438Z,68.36
2019-03-09T02:09:22.081Z,68.05
2019-03-09T02:11:51.455Z,67.64
2019-03-09T02:14:20.899Z,66.68
2019-03-09T02:16:50.337Z,65.62
2019-03-09T02:19:20.053Z,64.28
2019-03-09T02:21:49.485Z,63.43
2019-03-09T02:24:18.846Z,62.25
2019-03-09T02:26:48.275Z,60.92
2019-03-09T02:29:17.647Z,60.00
2019-03-09T02:31:47.068Z,59.78
2019-03-09T02:34:16.704Z,59.74
2019-03-09T02:36:46.122Z,59.77
2019-03-09T02:39:20.121Z,59.71
2019-03-09T02:41:49.534Z,59.24
2019-03-09T02:44:18.964Z,59.14
2019-03-09T02:46:48.410Z,58.92
2019-03-09T02:49:17.775Z,58.74
2019-03-09T02:51:47.304Z,58.37
2019-03-09T02:54:16.668Z,58.30
2019-03-09T02:56:46.111Z,58.21
2019-03-09T02:59:15.487Z,58.21
2019-03-09T03:01:52.250Z,58.17
2019-03-09T03:04:21.721Z,58.72
2019-03-09T03:06:51.144Z,58.54
2019-03-09T03:09:20.513Z,58.46
2019-03-09T03:11:49.885Z,58.47
2019-03-09T03:14:19.339Z,58.74
2019-03-09T03:16:48.835Z,59.04
2019-03-09T03:19:18.218Z,59.44
2019-03-09T03:21:47.658Z,59.71
2019-03-09T03:24:17.095Z,59.50
2019-03-09T03:26:46.472Z,59.13
2019-03-09T03:29:15.837Z,59.70
2019-03-09T03:31:45.283Z,59.70
2019-03-09T03:34:14.745Z,61.21
2019-03-09T03:36:44.173Z,63.40
2019-03-09T03:39:13.583Z,64.68
2019-03-09T03:41:42.937Z,64.86
2019-03-09T03:44:12.370Z,65.15
2019-03-09T03:46:41.716Z,64.94
2019-03-09T03:49:11.135Z,64.30
2019-03-09T03:51:40.618Z,65.19
2019-03-09T03:54:09.991Z,64.54
2019-03-09T03:56:39.348Z,64.25
2019-03-09T03:59:08.770Z,64.14
2019-03-09T04:01:38.133Z,64.12
2019-03-09T04:04:07.481Z,64.36
2019-03-09T04:06:36.900Z,64.08
2019-03-09T04:09:06.950Z,64.22
2019-03-09T04:11:36.391Z,63.64
2019-03-09T04:14:05.752Z,63.47
2019-03-09T04:16:35.196Z,63.16
2019-03-09T04:19:04.613Z,62.77
2019-03-09T04:21:33.968Z,62.26
2019-03-09T04:24:03.401Z,62.06
2019-03-09T04:26:32.844Z,62.16
2019-03-09T04:29:02.188Z,62.75
2019-03-09T04:31:31.631Z,63.00
2019-03-09T04:34:01.000Z,62.95
2019-03-09T04:36:30.455Z,62.75
2019-03-09T04:38:59.894Z,62.64
2019-03-09T04:41:29.337Z,63.11
2019-03-09T04:43:58.695Z,62.54
2019-03-09T04:46:28.152Z,62.80
2019-03-09T04:48:57.580Z,62.84
2019-03-09T04:51:26.949Z,63.09
2019-03-09T04:53:56.390Z,62.51
2019-03-09T04:56:25.760Z,63.02
2019-03-09T04:58:55.136Z,63.87
2019-03-09T05:01:24.575Z,65.34
2019-03-09T05:04:08.547Z,65.59
2019-03-09T05:06:37.912Z,65.54
2019-03-09T05:09:18.998Z,65.57
2019-03-09T05:11:48.426Z,65.26
2019-03-09T05:14:17.813Z,65.06
2019-03-09T05:16:47.271Z,64.93
2019-03-09T05:19:16.642Z,64.78
2019-03-09T05:21:46.082Z,65.32
2019-03-09T05:24:15.468Z,66.48
2019-03-09T05:26:45.085Z,66.70
2019-03-09T05:29:14.556Z,66.57
2019-03-09T05:31:43.948Z,66.06
2019-03-09T05:34:13.418Z,65.81
2019-03-09T05:36:42.845Z,65.61
2019-03-09T05:39:12.268Z,64.76
2019-03-09T05:41:41.823Z,64.56
2019-03-09T05:44:11.183Z,63.65
2019-03-09T05:46:40.716Z,62.11
2019-03-09T05:49:10.145Z,61.04
2019-03-09T05:51:39.547Z,60.47
2019-03-09T05:54:08.982Z,58.92
2019-03-09T05:56:38.522Z,58.66
2019-03-09T05:59:07.900Z,60.03
2019-03-09T06:01:37.387Z,61.10
2019-03-09T06:04:06.999Z,61.92
2019-03-09T06:06:36.555Z,62.02
2019-03-09T06:09:06.083Z,60.43
2019-03-09T06:11:35.759Z,59.13
2019-03-09T06:14:05.211Z,58.07
2019-03-09T06:16:34.658Z,56.85
2019-03-09T06:19:04.173Z,55.30
2019-03-09T06:21:33.625Z,54.83
2019-03-09T06:24:03.167Z,55.12
2019-03-09T06:26:32.550Z,54.86
2019-03-09T06:29:02.113Z,54.59
2019-03-09T06:31:31.856Z,54.99
2019-03-09T06:34:01.331Z,54.05
2019-03-09T06:36:36.487Z,54.10
2019-03-09T06:39:08.056Z,53.59
2019-03-09T06:41:40.438Z,53.69
2019-03-09T06:44:09.994Z,52.07
2019-03-09T06:46:39.568Z,52.23
2019-03-09T06:49:09.085Z,51.85
2019-03-09T06:51:38.560Z,50.80
2019-03-09T06:54:08.147Z,50.20
2019-03-09T06:56:37.519Z,50.02
2019-03-09T06:59:06.970Z,49.31
2019-03-09T07:01:36.454Z,48.99
2019-03-09T07:04:06.018Z,47.84
2019-03-09T07:06:35.151Z,46.07
2019-03-09T07:09:06.003Z,46.64
2019-03-09T07:11:35.380Z,46.25
2019-03-09T07:14:10.346Z,46.11
2019-03-09T07:16:39.846Z,45.40
2019-03-09T07:19:09.221Z,44.91
2019-03-09T07:21:38.658Z,44.99
2019-03-09T07:24:08.084Z,45.17
2019-03-09T07:26:37.893Z,45.24
2019-03-09T07:29:07.338Z,43.43
2019-03-09T07:31:36.797Z,43.98
2019-03-09T07:34:25.410Z,42.72
2019-03-09T07:36:54.846Z,38.44
2019-03-09T07:39:24.232Z,38.16
2019-03-09T07:41:53.599Z,37.13
2019-03-09T07:44:22.972Z,37.96
2019-03-09T07:46:52.400Z,37.67
2019-03-09T07:49:21.772Z,37.13
2019-03-09T07:51:51.198Z,36.90
2019-03-09T07:54:20.638Z,36.14
2019-03-09T07:56:50.160Z,35.00
2019-03-09T07:59:19.623Z,34.25
2019-03-09T08:01:48.997Z,33.21
2019-03-09T08:04:18.365Z,32.66
2019-03-09T08:06:47.840Z,32.20
2019-03-09T08:09:17.222Z,30.56
2019-03-09T08:11:46.660Z,31.22
2019-03-09T08:14:16.105Z,31.22
2019-03-09T08:16:48.443Z,30.58
2019-03-09T08:19:17.883Z,31.01
2019-03-09T08:21:47.723Z,31.47
2019-03-09T08:24:17.156Z,30.92
2019-03-09T08:26:46.640Z,30.78
2019-03-09T08:29:16.375Z,30.44
2019-03-09T08:31:45.845Z,30.44
2019-03-09T08:34:15.282Z,29.29
2019-03-09T08:36:44.695Z,30.41
2019-03-09T08:39:14.166Z,30.41
2019-03-09T08:41:43.613Z,29.25
2019-03-09T08:44:13.030Z,29.11
2019-03-09T08:46:42.492Z,29.06
2019-03-09T08:49:11.843Z,29.06
2019-03-09T08:51:41.291Z,29.30
2019-03-09T08:54:10.744Z,28.84
2019-03-09T08:56:40.166Z,29.07
2019-03-09T08:59:09.541Z,28.05
2019-03-09T09:01:38.974Z,28.87
2019-03-09T09:04:08.323Z,27.86
2019-03-09T09:06:37.775Z,28.00
2019-03-09T09:09:07.516Z,28.00
2019-03-09T09:11:36.955Z,27.54
2019-03-09T09:14:06.397Z,26.02
2019-03-09T09:16:35.843Z,26.30
2019-03-09T09:19:05.282Z,26.30
2019-03-09T09:21:34.721Z,24.49
2019-03-09T09:24:04.089Z,23.54
2019-03-09T09:26:33.512Z,23.54
2019-03-09T09:29:02.578Z,24.35
2019-03-09T09:31:32.017Z,24.13
2019-03-09T09:34:01.384Z,23.10
2019-03-09T09:36:30.463Z,23.10
2019-03-09T09:38:59.888Z,23.01
2019-03-09T09:41:29.320Z,23.01
2019-03-09T09:43:58.493Z,23.47
2019-03-09T09:46:28.011Z,22.32
2019-03-09T09:48:57.134Z,22.45
2019-03-09T09:51:26.676Z,22.05
2019-03-09T09:53:56.106Z,21.45
2019-03-09T09:56:25.238Z,21.45
2019-03-09T09:58:54.677Z,22.46
2019-03-09T10:01:23.798Z,22.46
2019-03-09T10:03:53.250Z,22.20
2019-03-09T10:06:22.678Z,22.13
2019-03-09T10:08:51.815Z,21.89
2019-03-09T10:11:20.864Z,21.17
2019-03-09T10:13:50.004Z,21.52
2019-03-09T10:16:19.171Z,21.68
2019-03-09T10:18:48.343Z,21.07
2019-03-09T10:21:17.392Z,21.07
2019-03-09T10:23:46.453Z,20.73
2019-03-09T10:26:15.631Z,21.20
2019-03-09T10:28:44.777Z,20.11
2019-03-09T10:31:13.923Z,20.84
2019-03-09T10:33:43.068Z,19.96
2019-03-09T10:36:12.187Z,19.96
2019-03-09T10:38:41.264Z,20.37
2019-03-09T10:41:10.394Z,19.47
2019-03-09T10:43:39.518Z,20.04
2019-03-09T10:46:08.596Z,20.04
2019-03-09T10:48:37.662Z,20.08
2019-03-09T10:51:06.808Z,19.17
2019-03-09T10:53:35.945Z,18.82
2019-03-09T10:56:05.068Z,19.58
2019-03-09T10:58:34.195Z,20.70
2019-03-09T11:01:04.439Z,19.92
2019-03-09T11:03:33.510Z,19.85
2019-03-09T11:06:02.649Z,19.55
2019-03-09T11:08:31.770Z,18.38
2019-03-09T11:11:00.912Z,18.92
2019-03-09T11:13:30.149Z,18.66
2019-03-09T11:15:59.227Z,18.45
2019-03-09T11:18:28.360Z,19.76
2019-03-09T11:20:57.487Z,18.85
2019-03-09T11:23:26.663Z,18.89
2019-03-09T11:25:55.817Z,18.35
2019-03-09T11:28:24.948Z,19.70
2019-03-09T11:30:54.081Z,18.61
2019-03-09T11:33:23.222Z,18.46
2019-03-09T11:35:52.582Z,18.97
2019-03-09T11:38:21.719Z,18.58
2019-03-09T11:40:57.265Z,18.40
2019-03-09T11:43:21.656Z,17.15
2019-03-09T11:45:50.798Z,18.49
2019-03-09T11:48:19.960Z,18.24
2019-03-09T11:50:49.022Z,18.67
2019-03-09T11:53:18.149Z,17.70
2019-03-09T11:55:47.271Z,18.28
2019-03-09T11:58:16.422Z,18.22
2019-03-09T12:00:46.664Z,17.93
2019-03-09T12:03:15.740Z,18.03
2019-03-09T12:05:44.799Z,18.61
2019-03-09T12:08:14.202Z,18.12
2019-03-09T12:10:43.337Z,18.85
2019-03-09T12:13:12.392Z,18.06
2019-03-09T12:15:41.550Z,17.71
2019-03-09T12:18:10.681Z,17.51
2019-03-09T12:20:39.828Z,17.05
2019-03-09T12:23:22.928Z,17.12
2019-03-09T12:25:52.100Z,16.95
2019-03-09T12:28:21.164Z,16.46
2019-03-09T12:30:50.237Z,17.06
2019-03-09T12:33:19.300Z,17.45
2019-03-09T12:35:48.438Z,17.00
2019-03-09T12:38:17.573Z,17.48
2019-03-09T12:40:46.714Z,17.17
2019-03-09T12:43:15.849Z,17.28
2019-03-09T12:45:44.998Z,17.43
2019-03-09T12:48:14.079Z,16.71
2019-03-09T12:50:43.209Z,17.44
2019-03-09T12:53:14.082Z,16.79
2019-03-09T12:55:43.375Z,17.15
2019-03-09T12:58:12.442Z,18.03
2019-03-09T13:00:41.578Z,17.19
2019-03-09T13:03:10.787Z,17.27
2019-03-09T13:05:39.922Z,17.10
2019-03-09T13:08:09.060Z,17.04
2019-03-09T13:10:38.132Z,18.21
2019-03-09T13:13:07.260Z,17.35
2019-03-09T13:15:36.481Z,18.52
2019-03-09T13:18:05.617Z,17.19
2019-03-09T13:20:34.757Z,17.22
2019-03-09T13:23:03.890Z,17.90
2019-03-09T13:25:33.016Z,18.40
2019-03-09T13:28:02.147Z,18.34
2019-03-09T13:30:31.193Z,18.34
2019-03-09T13:33:00.255Z,18.77
2019-03-09T13:35:29.393Z,18.38
2019-03-09T13:37:58.536Z,17.66
2019-03-09T13:40:27.671Z,18.09
2019-03-09T13:42:56.804Z,18.30
2019-03-09T13:45:25.864Z,19.53
2019-03-09T13:47:54.987Z,18.99
2019-03-09T13:50:24.127Z,18.30
2019-03-09T13:52:53.263Z,18.34
2019-03-09T13:55:22.413Z,19.02
2019-03-09T13:57:51.555Z,19.78
2019-03-09T14:00:20.787Z,20.60
2019-03-09T14:02:50.160Z,21.09
2019-03-09T14:05:19.220Z,21.85
2019-03-09T14:07:48.643Z,22.18
2019-03-09T14:10:18.330Z,23.05
2019-03-09T14:12:47.761Z,22.44
2019-03-09T14:15:17.868Z,21.87
2019-03-09T14:17:47.229Z,22.70
2019-03-09T14:20:16.970Z,22.70
2019-03-09T14:22:46.359Z,23.00
2019-03-09T14:25:16.260Z,23.00
2019-03-09T14:27:45.812Z,22.89
2019-03-09T14:30:19.211Z,24.70
2019-03-09T14:32:48.575Z,25.26
2019-03-09T14:35:18.001Z,25.26
2019-03-09T14:37:47.450Z,25.45
2019-03-09T14:40:17.191Z,25.91
2019-03-09T14:42:46.547Z,25.94
2019-03-09T14:45:17.481Z,25.94
2019-03-09T14:47:46.932Z,26.55
2019-03-09T14:50:16.334Z,27.64
2019-03-09T14:52:45.774Z,27.64
2019-03-09T14:55:15.148Z,28.75
2019-03-09T14:57:44.705Z,29.48
2019-03-09T15:00:27.436Z,30.50
2019-03-09T15:02:56.876Z,30.50
2019-03-09T15:05:26.309Z,28.91
2019-03-09T15:07:55.745Z,27.55
2019-03-09T15:10:25.137Z,28.02
2019-03-09T15:12:54.524Z,28.02
2019-03-09T15:15:23.971Z,27.93
2019-03-09T15:17:53.396Z,27.52
2019-03-09T15:20:22.742Z,27.52
2019-03-09T15:22:52.110Z,27.99
2019-03-09T15:25:21.475Z,28.47
2019-03-09T15:27:51.074Z,29.58
2019-03-09T15:30:21.542Z,29.58
2019-03-09T15:32:50.994Z,29.12
2019-03-09T15:35:20.349Z,28.68
2019-03-09T15:37:49.489Z,29.08
2019-03-09T15:40:19.927Z,29.05
2019-03-09T15:42:49.368Z,29.05
2019-03-09T15:45:19.686Z,29.70
2019-03-09T15:47:49.152Z,29.70
2019-03-09T15:50:19.666Z,30.09
2019-03-09T15:52:49.138Z,30.02
2019-03-09T15:55:18.672Z,30.15
2019-03-09T15:57:48.098Z,30.15
2019-03-09T16:00:22.441Z,30.16
2019-03-09T16:02:51.964Z,30.71
2019-03-09T16:05:21.439Z,30.76
2019-03-09T16:07:50.798Z,30.76
2019-03-09T16:10:21.397Z,30.64
2019-03-09T16:12:50.771Z,30.41
2019-03-09T16:15:20.301Z,31.40
2019-03-09T16:17:49.731Z,30.91
2019-03-09T16:20:23.950Z,30.93
2019-03-09T16:22:53.296Z,31.20
2019-03-09T16:25:22.742Z,31.18
2019-03-09T16:27:52.112Z,32.03
2019-03-09T16:30:24.239Z,32.30
2019-03-09T16:32:53.704Z,32.39
2019-03-09T16:35:23.141Z,33.60
2019-03-09T16:37:52.990Z,33.78
2019-03-09T16:40:26.857Z,34.12
2019-03-09T16:42:56.286Z,35.44
2019-03-09T16:45:25.824Z,34.24
2019-03-09T16:47:55.244Z,34.57
2019-03-09T16:50:24.743Z,34.99
2019-03-09T16:52:54.279Z,34.22
2019-03-09T16:55:23.830Z,34.42
2019-03-09T16:57:53.272Z,35.02
2019-03-09T17:00:23.622Z,35.69
2019-03-09T17:02:53.052Z,35.70
2019-03-09T17:05:22.494Z,36.22
2019-03-09T17:07:52.054Z,36.88
2019-03-09T17:10:21.500Z,37.54
2019-03-09T17:12:50.865Z,37.33
2019-03-09T17:15:24.856Z,37.61
2019-03-09T17:17:54.242Z,37.67
2019-03-09T17:20:23.617Z,37.61
2019-03-09T17:22:52.995Z,38.38
2019-03-09T17:25:22.441Z,38.88
2019-03-09T17:27:51.872Z,38.61
2019-03-09T17:30:21.798Z,38.96
2019-03-09T17:32:51.250Z,39.49
2019-03-09T17:35:20.687Z,40.84
2019-03-09T17:37:50.123Z,41.10
2019-03-09T17:40:20.662Z,40.72
2019-03-09T17:42:50.037Z,41.07
2019-03-09T17:45:21.592Z,40.71
2019-03-09T17:47:50.975Z,40.15
2019-03-09T17:50:20.350Z,40.07
2019-03-09T17:52:49.839Z,40.55
2019-03-09T17:55:19.262Z,41.14
2019-03-09T17:57:48.681Z,41.02
2019-03-09T18:00:29.412Z,41.25
2019-03-09T18:02:58.766Z,42.01
2019-03-09T18:05:28.233Z,41.08
2019-03-09T18:07:57.664Z,42.00
2019-03-09T18:10:54.372Z,42.72
2019-03-09T18:13:23.824Z,42.03
2019-03-09T18:15:53.261Z,43.00
2019-03-09T18:18:22.420Z,43.24
2019-03-09T18:20:51.875Z,43.16
2019-03-09T18:23:21.341Z,43.15
2019-03-09T18:25:50.737Z,43.34
2019-03-09T18:28:20.180Z,43.16
2019-03-09T18:30:49.632Z,44.53
2019-03-09T18:33:19.058Z,46.21
2019-03-09T18:35:48.424Z,46.77
2019-03-09T18:38:17.866Z,46.85
2019-03-09T18:40:49.594Z,46.56
2019-03-09T18:43:18.475Z,46.20
2019-03-09T18:45:47.896Z,46.66
2019-03-09T18:48:17.294Z,47.62
2019-03-09T18:50:46.767Z,47.72
2019-03-09T18:53:16.123Z,47.79
2019-03-09T18:55:45.618Z,48.30
2019-03-09T18:58:15.550Z,48.69
2019-03-09T19:00:45.012Z,47.98
2019-03-09T19:03:14.393Z,47.82
2019-03-09T19:05:43.819Z,48.04
2019-03-09T19:08:13.300Z,48.58
2019-03-09T19:10:43.001Z,48.36
2019-03-09T19:13:12.447Z,47.98
2019-03-09T19:15:41.906Z,48.34
2019-03-09T19:18:11.351Z,49.04
2019-03-09T19:20:40.733Z,49.09
2019-03-09T19:23:10.173Z,48.32
2019-03-09T19:25:41.397Z,48.75
2019-03-09T19:28:10.764Z,48.26
2019-03-09T19:30:40.203Z,49.45
2019-03-09T19:33:09.643Z,49.54
2019-03-09T19:35:39.092Z,48.65
2019-03-09T19:38:08.537Z,49.40
2019-03-09T19:40:38.030Z,50.10
2019-03-09T19:43:07.739Z,49.77
2019-03-09T19:45:37.186Z,50.23
2019-03-09T19:48:06.681Z,49.58
2019-03-09T19:50:36.113Z,49.82
2019-03-09T19:53:05.469Z,49.90
2019-03-09T19:55:34.975Z,49.95
2019-03-09T19:58:04.332Z,50.53
2019-03-09T20:00:33.782Z,50.18
2019-03-09T20:03:03.247Z,51.17
2019-03-09T20:05:33.434Z,52.47
2019-03-09T20:08:02.843Z,51.42
2019-03-09T20:10:32.301Z,50.85
2019-03-09T20:13:01.739Z,51.13
2019-03-09T20:15:31.202Z,51.17
2019-03-09T20:18:00.639Z,50.22
2019-03-09T20:20:30.133Z,50.51
2019-03-09T20:22:59.500Z,50.95
2019-03-09T20:25:28.936Z,51.25
2019-03-09T20:27:58.412Z,51.59
2019-03-09T20:30:27.853Z,51.45
2019-03-09T20:32:57.335Z,52.03
2019-03-09T20:35:26.697Z,52.12
2019-03-09T20:37:56.681Z,52.26
2019-03-09T20:40:26.123Z,52.32
2019-03-09T20:42:55.557Z,52.86
2019-03-09T20:45:24.986Z,52.69
2019-03-09T20:47:54.345Z,52.38
2019-03-09T20:50:24.299Z,52.06
2019-03-09T20:52:53.753Z,51.70
2019-03-09T20:55:23.242Z,51.59
2019-03-09T20:57:52.646Z,51.39
2019-03-09T21:00:22.992Z,51.85
2019-03-09T21:02:52.430Z,51.36
2019-03-09T21:05:21.909Z,50.93
2019-03-09T21:07:51.345Z,50.50
2019-03-09T21:10:21.366Z,50.03
2019-03-09T21:12:55.437Z,51.01
2019-03-09T21:15:24.847Z,49.65
2019-03-09T21:17:54.291Z,50.26
2019-03-09T21:20:23.715Z,50.29
2019-03-09T21:22:53.155Z,49.77
2019-03-09T21:25:22.629Z,50.26
2019-03-09T21:27:52.119Z,49.16
2019-03-09T21:30:21.558Z,49.24
2019-03-09T21:32:50.981Z,49.05
2019-03-09T21:35:20.443Z,48.92
2019-03-09T21:37:49.860Z,49.34
2019-03-09T21:40:19.390Z,49.26
2019-03-09T21:42:48.808Z,48.66
2019-03-09T21:45:18.229Z,48.08
2019-03-09T21:47:47.660Z,48.23
2019-03-09T21:50:18.031Z,48.48
2019-03-09T21:52:47.472Z,49.15
2019-03-09T21:55:17.242Z,49.00
2019-03-09T21:57:46.688Z,49.03
2019-03-09T22:00:20.156Z,49.68
2019-03-09T22:02:50.554Z,49.52
2019-03-09T22:05:20.072Z,49.54
2019-03-09T22:07:49.508Z,50.06
2019-03-09T22:10:18.975Z,50.08
2019-03-09T22:12:48.398Z,49.91
2019-03-09T22:15:18.567Z,49.93
2019-03-09T22:17:48.000Z,49.86
2019-03-09T22:20:17.366Z,49.71
2019-03-09T22:22:46.818Z,50.13
2019-03-09T22:25:19.253Z,49.96
2019-03-09T22:27:48.627Z,50.47
2019-03-09T22:30:20.649Z,50.67
2019-03-09T22:32:50.237Z,51.81
2019-03-09T22:35:19.681Z,52.13
2019-03-09T22:37:49.180Z,52.54
2019-03-09T22:40:19.647Z,52.70
2019-03-09T22:42:49.031Z,52.72
2019-03-09T22:45:18.518Z,52.44
2019-03-09T22:47:47.952Z,51.88
2019-03-09T22:50:18.422Z,52.23
2019-03-09T22:52:47.920Z,51.88
2019-03-09T22:55:17.363Z,51.68
2019-03-09T22:57:46.801Z,51.77
2019-03-09T23:00:18.940Z,50.63
2019-03-09T23:02:48.377Z,49.90
2019-03-09T23:05:17.994Z,49.42
2019-03-09T23:07:47.429Z,49.30
2019-03-09T23:10:18.562Z,48.80
2019-03-09T23:12:48.057Z,48.42
2019-03-09T23:15:18.062Z,48.26
2019-03-09T23:17:47.417Z,48.05
2019-03-09T23:20:17.818Z,47.79
2019-03-09T23:22:47.247Z,48.13
2019-03-09T23:25:16.675Z,47.82
2019-03-09T23:27:46.196Z,48.06
2019-03-09T23:30:18.208Z,48.37
2019-03-09T23:32:47.678Z,48.32
2019-03-09T23:35:17.301Z,48.55
2019-03-09T23:37:47.812Z,48.59
2019-03-09T23:40:18.860Z,48.72
2019-03-09T23:42:48.276Z,48.46
2019-03-09T23:45:22.084Z,48.77
2019-03-09T23:47:51.564Z,48.44
2019-03-09T23:50:21.033Z,48.90
2019-03-09T23:52:50.686Z,48.67
2019-03-09T23:55:23.024Z,48.98
2019-03-09T23:57:51.611Z,48.68
